createdAt,value
2018-07-07T00:00:23.735Z,5.63
2018-07-07T00:02:52.160Z,6.70
2018-07-07T00:05:20.614Z,6.83
2018-07-07T00:07:49.488Z,7.53
2018-07-07T00:10:17.930Z,6.50
2018-07-07T00:12:46.791Z,5.93
2018-07-07T00:15:19.262Z,6.13
2018-07-07T00:17:48.844Z,6.90
2018-07-07T00:20:17.864Z,6.87
2018-07-07T00:22:46.948Z,11.20
2018-07-07T00:25:16.749Z,7.33
2018-07-07T00:27:46.396Z,5.60
2018-07-07T00:30:15.133Z,11.17
2018-07-07T00:32:43.769Z,6.57
2018-07-07T00:35:12.347Z,6.93
2018-07-07T00:37:40.960Z,6.73
2018-07-07T00:40:10.396Z,5.90
2018-07-07T00:42:39.877Z,6.07
2018-07-07T00:45:09.042Z,7.00
2018-07-07T00:47:38.201Z,6.00
2018-07-07T00:50:07.270Z,7.10
2018-07-07T00:52:35.893Z,6.47
2018-07-07T00:55:04.383Z,8.57
2018-07-07T00:57:32.880Z,8.17
2018-07-07T01:00:01.415Z,6.97
2018-07-07T01:02:29.934Z,6.93
2018-07-07T01:04:58.736Z,11.87
2018-07-07T01:07:27.905Z,9.07
2018-07-07T01:09:56.379Z,8.40
2018-07-07T01:12:25.899Z,10.90
2018-07-07T01:14:54.334Z,8.43
2018-07-07T01:17:23.242Z,9.30
2018-07-07T01:19:51.711Z,8.87
2018-07-07T01:22:20.191Z,8.03
2018-07-07T01:24:48.605Z,8.50
2018-07-07T01:27:17.406Z,9.27
2018-07-07T01:29:45.813Z,9.60
2018-07-07T01:32:14.673Z,6.57
2018-07-07T01:34:43.172Z,9.50
2018-07-07T01:37:11.740Z,8.00
2018-07-07T01:39:40.208Z,8.40
2018-07-07T01:42:08.762Z,8.53
2018-07-07T01:44:37.907Z,9.33
2018-07-07T01:47:06.807Z,7.40
2018-07-07T01:49:35.301Z,7.60
2018-07-07T01:52:04.437Z,8.67
2018-07-07T01:54:32.823Z,9.83
2018-07-07T01:57:01.295Z,8.00
2018-07-07T01:59:29.796Z,6.93
2018-07-07T02:01:59.142Z,8.80
2018-07-07T02:04:27.559Z,7.23
2018-07-07T02:06:56.397Z,8.80
2018-07-07T02:09:24.907Z,7.17
2018-07-07T02:11:53.354Z,8.13
2018-07-07T02:14:21.812Z,8.67
2018-07-07T02:16:50.384Z,8.73
2018-07-07T02:19:18.778Z,8.87
2018-07-07T02:21:47.321Z,7.37
2018-07-07T02:24:15.753Z,7.23
2018-07-07T02:26:44.332Z,8.70
2018-07-07T02:29:12.763Z,10.33
2018-07-07T02:31:41.244Z,11.17
2018-07-07T02:34:09.712Z,8.73
2018-07-07T02:36:38.160Z,8.23
2018-07-07T02:39:06.668Z,8.53
2018-07-07T02:41:36.132Z,9.23
2018-07-07T02:44:04.649Z,9.37
2018-07-07T02:46:33.157Z,8.50
2018-07-07T02:49:02.052Z,7.87
2018-07-07T02:51:30.932Z,7.77
2018-07-07T02:53:59.328Z,10.93
2018-07-07T02:56:27.966Z,7.97
2018-07-07T02:58:56.486Z,9.63
2018-07-07T03:01:24.979Z,8.07
2018-07-07T03:03:53.469Z,11.63
2018-07-07T03:06:22.008Z,8.37
2018-07-07T03:08:50.525Z,7.87
2018-07-07T03:11:19.997Z,9.57
2018-07-07T03:13:48.477Z,9.97
2018-07-07T03:16:17.362Z,7.80
2018-07-07T03:18:45.812Z,8.87
2018-07-07T03:21:15.444Z,9.00
2018-07-07T03:23:43.904Z,7.77
2018-07-07T03:26:12.377Z,10.27
2018-07-07T03:28:40.869Z,9.17
2018-07-07T03:31:10.425Z,9.57
2018-07-07T03:33:38.884Z,11.10
2018-07-07T03:36:07.837Z,9.43
2018-07-07T03:38:36.863Z,8.03
2018-07-07T03:41:06.172Z,10.73
2018-07-07T03:43:34.990Z,8.10
2018-07-07T03:46:03.653Z,11.67
2018-07-07T03:48:32.745Z,10.83
2018-07-07T03:51:02.260Z,8.33
2018-07-07T03:53:30.668Z,9.17
2018-07-07T03:55:59.200Z,9.30
2018-07-07T03:58:27.705Z,10.37
2018-07-07T04:00:57.310Z,9.00
2018-07-07T04:03:25.762Z,8.93
2018-07-07T04:05:54.395Z,9.57
2018-07-07T04:08:22.849Z,7.67
2018-07-07T04:10:52.555Z,10.07
2018-07-07T04:13:21.010Z,7.03
2018-07-07T04:15:49.611Z,7.63
2018-07-07T04:18:23.538Z,6.63
2018-07-07T04:20:52.080Z,6.97
2018-07-07T04:23:20.710Z,6.90
2018-07-07T04:25:49.219Z,7.73
2018-07-07T04:28:17.737Z,6.73
2018-07-07T04:30:46.250Z,8.93
2018-07-07T04:33:14.873Z,9.77
2018-07-07T04:35:43.300Z,7.77
2018-07-07T04:38:12.044Z,9.40
2018-07-07T04:40:40.522Z,9.47
2018-07-07T04:43:09.102Z,7.87
2018-07-07T04:45:37.616Z,6.93
2018-07-07T04:48:06.605Z,8.17
2018-07-07T04:50:35.260Z,7.70
2018-07-07T04:53:04.305Z,8.40
2018-07-07T04:55:32.732Z,8.50
2018-07-07T04:58:01.537Z,9.17
2018-07-07T05:00:30.337Z,8.13
2018-07-07T05:02:59.698Z,8.83
2018-07-07T05:05:28.304Z,10.37
2018-07-07T05:07:56.954Z,6.27
2018-07-07T05:10:25.401Z,6.90
2018-07-07T05:12:54.253Z,6.80
2018-07-07T05:15:22.735Z,8.17
2018-07-07T05:17:51.460Z,8.60
2018-07-07T05:20:19.904Z,7.33
2018-07-07T05:22:48.515Z,7.10
2018-07-07T05:25:17.032Z,8.20
2018-07-07T05:27:45.507Z,8.27
2018-07-07T05:30:13.993Z,7.30
2018-07-07T05:32:42.456Z,8.23
2018-07-07T05:35:10.936Z,6.90
2018-07-07T05:37:39.520Z,8.00
2018-07-07T05:40:08.015Z,8.10
2018-07-07T05:42:36.871Z,9.70
2018-07-07T05:45:06.248Z,11.07
2018-07-07T05:47:34.924Z,8.97
2018-07-07T05:50:03.447Z,8.33
2018-07-07T05:52:32.185Z,9.47
2018-07-07T05:55:00.993Z,8.87
2018-07-07T05:57:30.019Z,8.97
2018-07-07T05:59:58.671Z,8.13
2018-07-07T06:02:27.226Z,10.00
2018-07-07T06:04:56.461Z,8.17
2018-07-07T06:07:25.066Z,10.03
2018-07-07T06:09:53.621Z,12.10
2018-07-07T06:12:22.160Z,8.23
2018-07-07T06:14:50.709Z,10.50
2018-07-07T06:17:19.253Z,9.57
2018-07-07T06:19:47.844Z,10.87
2018-07-07T06:22:16.311Z,9.10
2018-07-07T06:24:44.770Z,12.97
2018-07-07T06:27:13.616Z,10.70
2018-07-07T06:29:42.036Z,16.43
2018-07-07T06:32:11.120Z,10.67
2018-07-07T06:34:39.256Z,11.00
2018-07-07T06:37:07.763Z,10.17
2018-07-07T06:39:36.233Z,9.63
2018-07-07T06:42:04.695Z,9.60
2018-07-07T06:44:33.125Z,11.07
2018-07-07T06:47:01.692Z,12.33
2018-07-07T06:49:30.205Z,11.27
2018-07-07T06:51:58.765Z,10.57
2018-07-07T06:54:27.300Z,12.17
2018-07-07T06:56:56.919Z,10.97
2018-07-07T06:59:25.775Z,12.43
2018-07-07T07:01:54.326Z,12.67
2018-07-07T07:04:22.750Z,11.70
2018-07-07T07:06:51.220Z,10.93
2018-07-07T07:09:19.668Z,10.93
2018-07-07T07:11:48.209Z,11.60
2018-07-07T07:14:16.645Z,10.53
2018-07-07T07:16:45.522Z,11.07
2018-07-07T07:19:13.955Z,11.00
2018-07-07T07:21:42.417Z,12.23
2018-07-07T07:24:11.245Z,12.67
2018-07-07T07:26:39.727Z,15.13
2018-07-07T07:29:08.362Z,14.37
2018-07-07T07:31:36.932Z,13.30
2018-07-07T07:34:05.416Z,11.73
2018-07-07T07:36:37.853Z,12.53
2018-07-07T07:39:06.329Z,13.33
2018-07-07T07:41:35.272Z,10.80
2018-07-07T07:44:04.512Z,10.70
2018-07-07T07:46:33.517Z,11.83
2018-07-07T07:49:02.295Z,13.07
2018-07-07T07:51:31.224Z,11.03
2018-07-07T07:53:59.692Z,12.10
2018-07-07T07:56:28.567Z,11.63
2018-07-07T07:58:58.491Z,11.50
2018-07-07T08:01:28.322Z,11.10
2018-07-07T08:03:57.958Z,10.43
2018-07-07T08:06:27.136Z,10.57
2018-07-07T08:08:56.657Z,13.70
2018-07-07T08:11:25.816Z,12.13
2018-07-07T08:13:54.293Z,10.73
2018-07-07T08:16:22.814Z,10.60
2018-07-07T08:18:51.299Z,11.87
2018-07-07T08:21:19.888Z,10.53
2018-07-07T08:23:48.358Z,14.33
2018-07-07T08:26:16.834Z,10.43
2018-07-07T08:28:45.712Z,10.93
2018-07-07T08:31:14.221Z,9.50
2018-07-07T08:33:43.292Z,10.53
2018-07-07T08:36:11.738Z,11.07
2018-07-07T08:38:40.178Z,8.23
2018-07-07T08:41:09.631Z,10.07
2018-07-07T08:43:38.071Z,9.63
2018-07-07T08:46:06.531Z,8.80
2018-07-07T08:48:34.986Z,10.90
2018-07-07T08:51:03.648Z,9.83
2018-07-07T08:53:32.059Z,8.73
2018-07-07T08:56:00.572Z,11.13
2018-07-07T08:58:29.028Z,9.27
2018-07-07T09:00:58.379Z,9.77
2018-07-07T09:03:27.700Z,8.37
2018-07-07T09:05:56.974Z,11.10
2018-07-07T09:08:25.836Z,11.97
2018-07-07T09:10:56.127Z,10.43
2018-07-07T09:13:25.220Z,11.13
2018-07-07T09:15:53.897Z,11.23
2018-07-07T09:18:22.399Z,10.70
2018-07-07T09:20:51.624Z,9.90
2018-07-07T09:23:19.999Z,11.70
2018-07-07T09:25:48.505Z,12.10
2018-07-07T09:28:16.936Z,9.77
2018-07-07T09:30:45.408Z,9.57
2018-07-07T09:33:13.992Z,13.03
2018-07-07T09:35:42.940Z,14.60
2018-07-07T09:38:11.380Z,10.33
2018-07-07T09:40:40.906Z,10.47
2018-07-07T09:43:09.377Z,10.53
2018-07-07T09:45:37.821Z,10.27
2018-07-07T09:48:06.623Z,11.57
2018-07-07T09:50:35.188Z,10.73
2018-07-07T09:53:03.610Z,10.43
2018-07-07T09:55:32.240Z,10.43
2018-07-07T09:58:01.072Z,11.93
2018-07-07T10:00:36.027Z,10.37
2018-07-07T10:03:04.887Z,12.20
2018-07-07T10:05:33.399Z,8.40
2018-07-07T10:08:01.853Z,9.03
2018-07-07T10:10:30.418Z,9.50
2018-07-07T10:12:58.940Z,8.80
2018-07-07T10:15:27.489Z,10.40
2018-07-07T10:17:56.009Z,10.00
2018-07-07T10:20:26.402Z,12.37
2018-07-07T10:22:55.872Z,10.43
2018-07-07T10:25:25.142Z,10.80
2018-07-07T10:27:54.044Z,10.03
2018-07-07T10:30:23.525Z,11.57
2018-07-07T10:32:52.216Z,12.23
2018-07-07T10:35:21.001Z,11.07
2018-07-07T10:37:49.494Z,11.07
2018-07-07T10:40:18.113Z,11.60
2018-07-07T10:42:46.594Z,9.23
2018-07-07T10:45:15.848Z,8.90
2018-07-07T10:47:44.318Z,12.77
2018-07-07T10:50:13.042Z,10.83
2018-07-07T10:52:41.528Z,9.97
2018-07-07T10:55:10.137Z,8.87
2018-07-07T10:57:38.636Z,9.20
2018-07-07T11:00:07.718Z,9.03
2018-07-07T11:02:36.293Z,10.57
2018-07-07T11:05:05.561Z,10.13
2018-07-07T11:07:34.028Z,10.10
2018-07-07T11:10:02.921Z,10.93
2018-07-07T11:12:31.387Z,9.33
2018-07-07T11:14:59.608Z,9.00
2018-07-07T11:17:28.392Z,11.63
2018-07-07T11:19:57.188Z,10.77
2018-07-07T11:22:26.521Z,10.77
2018-07-07T11:24:55.712Z,9.27
2018-07-07T11:27:24.832Z,9.10
2018-07-07T11:29:54.164Z,11.77
2018-07-07T11:32:22.742Z,10.67
2018-07-07T11:34:51.563Z,8.80
2018-07-07T11:37:20.070Z,9.80
2018-07-07T11:39:48.707Z,11.93
2018-07-07T11:42:17.252Z,14.23
2018-07-07T11:44:46.010Z,11.03
2018-07-07T11:47:14.575Z,9.93
2018-07-07T11:49:43.075Z,11.00
2018-07-07T11:52:11.545Z,8.50
2018-07-07T11:54:40.016Z,9.87
2018-07-07T11:57:08.572Z,8.40
2018-07-07T11:59:37.426Z,9.03
2018-07-07T12:02:06.049Z,8.87
2018-07-07T12:04:34.626Z,8.80
2018-07-07T12:07:03.540Z,7.77
2018-07-07T12:09:32.441Z,12.23
2018-07-07T12:12:01.049Z,7.50
2018-07-07T12:14:29.592Z,11.57
2018-07-07T12:16:58.006Z,8.60
2018-07-07T12:19:26.586Z,8.27
2018-07-07T12:21:55.083Z,8.33
2018-07-07T12:24:24.160Z,9.23
2018-07-07T12:26:52.585Z,8.83
2018-07-07T12:29:21.247Z,9.17
2018-07-07T12:31:49.685Z,9.17
2018-07-07T12:34:18.175Z,8.87
2018-07-07T12:36:46.756Z,9.10
2018-07-07T12:39:15.523Z,9.93
2018-07-07T12:41:44.415Z,9.80
2018-07-07T12:44:13.221Z,23.07
2018-07-07T12:46:41.735Z,71.57
2018-07-07T12:49:10.500Z,50.43
2018-07-07T12:51:39.034Z,35.07
2018-07-07T12:54:07.565Z,25.93
2018-07-07T12:56:35.723Z,19.57
2018-07-07T12:59:04.388Z,15.50
2018-07-07T13:01:32.797Z,15.13
2018-07-07T13:04:01.268Z,12.40
2018-07-07T13:06:30.099Z,11.73
2018-07-07T13:08:58.706Z,10.77
2018-07-07T13:11:27.536Z,10.97
2018-07-07T13:13:56.584Z,13.33
2018-07-07T13:16:25.729Z,11.90
2018-07-07T13:18:55.105Z,13.47
2018-07-07T13:21:24.192Z,10.97
2018-07-07T13:23:52.783Z,13.40
2018-07-07T13:26:21.258Z,14.40
2018-07-07T13:28:49.867Z,13.17
2018-07-07T13:31:18.587Z,11.20
2018-07-07T13:33:47.999Z,10.97
2018-07-07T13:36:16.469Z,11.47
2018-07-07T13:38:45.111Z,10.70
2018-07-07T13:41:13.744Z,11.23
2018-07-07T13:43:42.625Z,10.23
2018-07-07T13:46:11.398Z,13.73
2018-07-07T13:48:40.292Z,10.97
2018-07-07T13:51:08.708Z,9.63
2018-07-07T13:53:37.205Z,9.70
2018-07-07T13:56:06.336Z,9.40
2018-07-07T13:58:34.946Z,9.73
2018-07-07T14:02:07.030Z,10.37
2018-07-07T14:04:35.682Z,10.97
2018-07-07T14:07:04.147Z,11.43
2018-07-07T14:09:33.262Z,10.80
2018-07-07T14:12:01.894Z,10.43
2018-07-07T14:14:30.544Z,9.90
2018-07-07T14:16:59.084Z,9.77
2018-07-07T14:19:27.843Z,9.83
2018-07-07T14:21:56.356Z,9.87
2018-07-07T14:24:25.698Z,9.00
2018-07-07T14:26:54.866Z,9.93
2018-07-07T14:29:23.331Z,8.93
2018-07-07T14:31:51.979Z,9.23
2018-07-07T14:34:20.832Z,9.30
2018-07-07T14:36:49.404Z,9.70
2018-07-07T14:39:18.288Z,11.27
2018-07-07T14:41:48.925Z,8.00
2018-07-07T14:44:17.571Z,9.07
2018-07-07T14:46:46.152Z,8.93
2018-07-07T14:49:15.141Z,8.77
2018-07-07T14:51:43.673Z,8.83
2018-07-07T14:54:12.253Z,8.53
2018-07-07T14:56:40.796Z,7.77
2018-07-07T14:59:09.423Z,11.77
2018-07-07T15:01:37.798Z,9.60
2018-07-07T15:04:06.420Z,8.13
2018-07-07T15:06:34.941Z,8.13
2018-07-07T15:09:04.817Z,10.07
2018-07-07T15:11:33.230Z,7.90
2018-07-07T15:14:01.826Z,7.37
2018-07-07T15:16:30.335Z,9.40
2018-07-07T15:18:58.924Z,8.83
2018-07-07T15:21:27.131Z,7.87
2018-07-07T15:23:56.411Z,7.27
2018-07-07T15:26:25.468Z,7.27
2018-07-07T15:28:54.362Z,7.60
2018-07-07T15:31:22.828Z,7.00
2018-07-07T15:33:51.393Z,7.43
2018-07-07T15:36:19.880Z,7.33
2018-07-07T15:38:48.865Z,7.47
2018-07-07T15:41:17.682Z,8.50
2018-07-07T15:43:46.145Z,9.27
2018-07-07T15:46:14.546Z,8.00
2018-07-07T15:48:43.132Z,8.10
2018-07-07T15:51:11.393Z,8.23
2018-07-07T15:53:40.440Z,9.67
2018-07-07T15:56:08.920Z,7.70
2018-07-07T15:58:37.445Z,8.40
2018-07-07T16:01:05.979Z,7.80
2018-07-07T16:03:34.854Z,8.27
2018-07-07T16:06:03.394Z,8.40
2018-07-07T16:08:31.888Z,7.60
2018-07-07T16:11:00.345Z,7.90
2018-07-07T16:13:28.875Z,8.20
2018-07-07T16:15:57.314Z,7.90
2018-07-07T16:18:25.962Z,7.50
2018-07-07T16:20:55.232Z,7.70
2018-07-07T16:23:24.709Z,8.40
2018-07-07T16:25:53.371Z,7.83
2018-07-07T16:28:21.986Z,8.23
2018-07-07T16:30:50.571Z,8.27
2018-07-07T16:33:19.872Z,8.37
2018-07-07T16:35:48.385Z,9.57
2018-07-07T16:38:16.942Z,8.03
2018-07-07T16:40:46.570Z,8.13
2018-07-07T16:43:15.159Z,8.93
2018-07-07T16:45:43.674Z,8.40
2018-07-07T16:48:12.359Z,9.67
2018-07-07T16:50:40.898Z,11.60
2018-07-07T16:53:09.475Z,8.07
2018-07-07T16:55:38.139Z,8.57
2018-07-07T16:58:06.658Z,8.17
2018-07-07T17:00:36.081Z,8.27
2018-07-07T17:03:05.592Z,9.33
2018-07-07T17:05:34.360Z,8.53
2018-07-07T17:08:02.989Z,9.70
2018-07-07T17:10:31.618Z,8.80
2018-07-07T17:13:00.501Z,10.07
2018-07-07T17:15:29.877Z,8.17
2018-07-07T17:17:58.414Z,8.77
2018-07-07T17:20:27.042Z,9.80
2018-07-07T17:22:56.210Z,8.00
2018-07-07T17:25:25.582Z,8.30
2018-07-07T17:27:56.094Z,12.10
2018-07-07T17:30:24.796Z,8.30
2018-07-07T17:32:55.075Z,8.10
2018-07-07T17:35:23.810Z,9.70
2018-07-07T17:38:23.788Z,10.53
2018-07-07T17:40:52.938Z,9.37
2018-07-07T17:43:21.677Z,11.20
2018-07-07T17:45:50.998Z,8.37
2018-07-07T17:48:19.709Z,8.17
2018-07-07T17:50:47.876Z,8.40
2018-07-07T17:53:17.085Z,8.83
2018-07-07T17:55:45.638Z,9.20
2018-07-07T17:58:14.661Z,8.73
2018-07-07T18:00:43.444Z,9.07
2018-07-07T18:03:12.056Z,9.13
2018-07-07T18:05:40.801Z,8.60
2018-07-07T18:08:09.743Z,10.80
2018-07-07T18:10:38.315Z,9.17
2018-07-07T18:13:07.572Z,10.03
2018-07-07T18:15:36.209Z,9.33
2018-07-07T18:18:04.880Z,8.60
2018-07-07T18:20:33.392Z,9.20
2018-07-07T18:23:01.875Z,8.83
2018-07-07T18:25:30.326Z,10.97
2018-07-07T18:27:59.209Z,8.90
2018-07-07T18:30:27.666Z,8.70
2018-07-07T18:32:56.477Z,8.80
2018-07-07T18:35:25.627Z,9.63
2018-07-07T18:37:55.390Z,9.37
2018-07-07T18:40:24.774Z,9.67
2018-07-07T18:42:53.967Z,9.43
2018-07-07T18:45:22.491Z,8.87
2018-07-07T18:47:50.973Z,9.57
2018-07-07T18:50:19.403Z,8.43
2018-07-07T18:52:48.042Z,8.33
2018-07-07T18:55:16.686Z,8.53
2018-07-07T18:57:45.249Z,8.77
2018-07-07T19:00:13.753Z,10.23
2018-07-07T19:02:42.258Z,7.53
2018-07-07T19:05:10.755Z,8.40
2018-07-07T19:07:39.347Z,9.33
2018-07-07T19:10:08.293Z,9.73
2018-07-07T19:12:36.771Z,7.80
2018-07-07T19:15:10.794Z,9.03
2018-07-07T19:17:39.588Z,7.80
2018-07-07T19:20:08.195Z,10.67
2018-07-07T19:22:41.999Z,7.27
2018-07-07T19:25:15.799Z,7.97
2018-07-07T19:27:43.979Z,10.33
2018-07-07T19:30:12.553Z,9.40
2018-07-07T19:33:45.867Z,7.43
2018-07-07T19:36:19.717Z,7.07
2018-07-07T19:38:47.914Z,6.73
2018-07-07T19:41:16.436Z,7.40
2018-07-07T19:43:44.879Z,8.37
2018-07-07T19:46:13.723Z,8.77
2018-07-07T19:48:42.390Z,6.90
2018-07-07T19:51:11.316Z,7.80
2018-07-07T19:53:39.906Z,8.47
2018-07-07T19:56:08.916Z,8.40
2018-07-07T19:58:37.367Z,7.30
2018-07-07T20:01:06.163Z,7.87
2018-07-07T20:03:34.629Z,7.00
2018-07-07T20:06:03.146Z,7.20
2018-07-07T20:08:31.648Z,8.00
2018-07-07T20:11:00.093Z,7.30
2018-07-07T20:13:28.940Z,7.80
2018-07-07T20:16:14.739Z,9.00
2018-07-07T20:19:03.759Z,8.20
2018-07-07T20:21:57.403Z,7.20
2018-07-07T20:24:29.599Z,9.07
2018-07-07T20:27:04.243Z,8.50
2018-07-07T20:29:33.013Z,7.40
2018-07-07T20:32:01.813Z,7.30
2018-07-07T20:34:31.279Z,7.10
2018-07-07T20:37:00.180Z,10.00
2018-07-07T20:39:28.690Z,10.60
2018-07-07T20:41:57.635Z,7.47
2018-07-07T20:44:26.152Z,9.37
2018-07-07T20:46:55.541Z,10.00
2018-07-07T20:49:24.961Z,7.30
2018-07-07T20:51:53.643Z,7.30
2018-07-07T20:54:22.164Z,8.17
2018-07-07T20:56:50.630Z,7.47
2018-07-07T20:59:19.047Z,7.70
2018-07-07T21:01:47.932Z,7.20
2018-07-07T21:04:16.507Z,8.03
2018-07-07T21:06:44.984Z,7.97
2018-07-07T21:09:13.527Z,9.50
2018-07-07T21:11:42.060Z,10.13
2018-07-07T21:14:10.524Z,8.23
2018-07-07T21:16:39.341Z,7.47
2018-07-07T21:19:07.843Z,7.53
2018-07-07T21:21:36.396Z,9.60
2018-07-07T21:24:04.935Z,8.07
2018-07-07T21:26:33.424Z,7.60
2018-07-07T21:29:01.849Z,8.73
2018-07-07T21:31:30.367Z,7.40
2018-07-07T21:33:58.887Z,11.13
2018-07-07T21:36:27.710Z,7.13
2018-07-07T21:38:56.119Z,7.63
2018-07-07T21:41:25.194Z,9.17
2018-07-07T21:43:54.079Z,7.67
2018-07-07T21:46:23.673Z,7.60
2018-07-07T21:48:52.184Z,9.50
2018-07-07T21:51:20.679Z,9.33
2018-07-07T21:53:49.146Z,8.87
2018-07-07T21:56:18.176Z,7.77
2018-07-07T21:58:46.995Z,7.30
2018-07-07T22:02:38.225Z,11.70
2018-07-07T22:05:12.408Z,7.47
2018-07-07T22:07:41.322Z,10.40
2018-07-07T22:10:09.899Z,7.67
2018-07-07T22:12:38.456Z,8.50
2018-07-07T22:15:07.077Z,8.10
2018-07-07T22:17:35.968Z,8.17
2018-07-07T22:20:04.490Z,8.47
2018-07-07T22:22:33.283Z,8.60
2018-07-07T22:25:01.841Z,12.73
2018-07-07T22:27:30.336Z,8.70
2018-07-07T22:29:58.961Z,11.67
2018-07-07T22:32:27.495Z,8.90
2018-07-07T22:35:00.806Z,9.13
2018-07-07T22:37:29.468Z,8.63
2018-07-07T22:39:58.016Z,9.33
2018-07-07T22:42:27.391Z,10.43
2018-07-07T22:44:56.896Z,10.07
2018-07-07T22:47:26.047Z,9.07
2018-07-07T22:49:54.570Z,11.30
2018-07-07T22:52:23.049Z,9.20
2018-07-07T22:54:51.572Z,9.57
2018-07-07T22:57:20.088Z,9.40
2018-07-07T22:59:48.641Z,8.67
2018-07-07T23:02:18.125Z,10.47
2018-07-07T23:04:46.812Z,11.93
2018-07-07T23:07:15.384Z,9.33
2018-07-07T23:09:43.899Z,9.93
2018-07-07T23:12:12.385Z,8.37
2018-07-07T23:14:40.956Z,8.77
2018-07-07T23:17:09.767Z,8.57
2018-07-07T23:19:38.476Z,8.27
2018-07-07T23:22:07.468Z,9.40
2018-07-07T23:24:36.419Z,9.90
2018-07-07T23:27:05.587Z,8.60
2018-07-07T23:29:34.240Z,10.17
2018-07-07T23:32:02.694Z,8.80
2018-07-07T23:34:31.432Z,10.57
2018-07-07T23:36:59.878Z,9.47
2018-07-07T23:39:28.427Z,9.53
2018-07-07T23:41:56.923Z,8.80
2018-07-07T23:44:25.584Z,13.00
2018-07-07T23:46:54.066Z,8.67
2018-07-07T23:49:22.575Z,11.57
2018-07-07T23:51:51.140Z,8.73
2018-07-07T23:54:19.912Z,9.77
2018-07-07T23:56:48.528Z,9.13
2018-07-07T23:59:16.999Z,9.70
